createdAt,value
2022-12-22T00:05:23.950Z,22.0947265625
2022-12-22T00:15:23.759Z,22.0947265625
2022-12-22T00:25:23.740Z,24.1943359375
2022-12-22T00:35:23.632Z,23.7060546875
2022-12-22T00:45:23.597Z,26.4892578125
2022-12-22T00:55:23.465Z,22.30224609375
2022-12-22T01:05:23.395Z,22.30224609375
2022-12-22T01:15:23.344Z,21.8017578125
2022-12-22T01:25:23.264Z,22.705078125
2022-12-22T01:35:23.305Z,24.30419921875
2022-12-22T01:45:23.095Z,24.69482421875
2022-12-22T01:55:23.057Z,22.802734375
2022-12-22T02:05:22.986Z,21.9970703125
2022-12-22T02:15:22.877Z,22.49755859375
2022-12-22T02:25:22.832Z,23.095703125
2022-12-22T02:35:22.764Z,23.9990234375
2022-12-22T02:45:22.665Z,23.59619140625
2022-12-22T02:55:22.605Z,23.40087890625
2022-12-22T03:05:22.495Z,22.59521484375
2022-12-22T03:15:22.415Z,21.10595703125
2022-12-22T03:25:22.341Z,21.49658203125
2022-12-22T03:35:22.275Z,21.49658203125
2022-12-22T03:45:22.206Z,21.59423828125
2022-12-22T03:55:22.163Z,20.8984375
2022-12-22T04:05:22.056Z,21.39892578125
2022-12-22T04:15:22.040Z,21.10595703125
2022-12-22T04:25:21.945Z,20.49560546875
2022-12-22T04:35:21.862Z,19.39697265625
2022-12-22T04:45:21.778Z,19.10400390625
2022-12-22T04:55:21.684Z,18.798828125
2022-12-22T05:05:21.653Z,18.603515625
2022-12-22T05:15:21.652Z,19.10400390625
2022-12-22T05:25:21.496Z,18.994140625
2022-12-22T05:35:21.424Z,18.29833984375
2022-12-22T05:45:21.353Z,18.29833984375
2022-12-22T05:55:21.262Z,18.00537109375
2022-12-22T06:05:21.231Z,18.00537109375
2022-12-22T06:15:21.114Z,17.7978515625
2022-12-22T06:25:21.100Z,17.7001953125
2022-12-22T06:35:20.986Z,17.39501953125
2022-12-22T06:45:20.884Z,17.29736328125
2022-12-22T06:55:20.830Z,17.19970703125
2022-12-22T07:05:20.760Z,17.00439453125
2022-12-22T07:15:20.708Z,17.00439453125
2022-12-22T07:25:20.614Z,16.69921875
2022-12-22T07:35:20.549Z,16.69921875
2022-12-22T07:45:20.454Z,16.69921875
2022-12-22T07:55:20.420Z,16.50390625
2022-12-22T08:05:20.334Z,16.19873046875
2022-12-22T08:15:20.296Z,15.7958984375
2022-12-22T08:25:20.258Z,15.6982421875
2022-12-22T08:35:20.090Z,15.4052734375
2022-12-22T08:45:20.044Z,15.29541015625
2022-12-22T08:55:19.951Z,15.29541015625
2022-12-22T09:05:19.907Z,15.29541015625
2022-12-22T09:15:19.807Z,15.29541015625
2022-12-22T09:25:19.734Z,15.19775390625
2022-12-22T09:35:19.638Z,15.29541015625
2022-12-22T09:45:19.569Z,15.29541015625
2022-12-22T09:55:19.532Z,15.19775390625
2022-12-22T10:05:19.562Z,15.10009765625
2022-12-22T10:15:22.060Z,15.10009765625
2022-12-22T10:25:19.301Z,15.00244140625
2022-12-22T10:35:19.247Z,14.697265625
2022-12-22T10:45:20.849Z,14.404296875
2022-12-22T10:55:19.454Z,14.19677734375
2022-12-22T11:05:19.020Z,14.19677734375
2022-12-22T11:15:24.287Z,14.29443359375
2022-12-22T11:25:18.887Z,14.00146484375
2022-12-22T11:35:18.808Z,13.90380859375
2022-12-22T11:45:18.691Z,13.90380859375
2022-12-22T11:55:18.658Z,13.7939453125
2022-12-22T12:05:18.680Z,13.90380859375
2022-12-22T12:15:18.482Z,14.00146484375
2022-12-22T12:25:23.813Z,14.19677734375
2022-12-22T12:35:18.362Z,14.29443359375
2022-12-22T12:45:18.269Z,14.29443359375
2022-12-22T12:55:21.590Z,14.404296875
2022-12-22T13:05:18.142Z,14.29443359375
2022-12-22T13:15:18.059Z,14.29443359375
2022-12-22T13:25:18.010Z,14.19677734375
2022-12-22T13:35:30.957Z,14.09912109375
2022-12-22T13:45:17.818Z,14.19677734375
2022-12-22T13:55:17.749Z,14.19677734375
2022-12-22T14:05:17.687Z,14.19677734375
2022-12-22T14:15:17.647Z,14.404296875
2022-12-22T14:25:17.562Z,14.404296875
2022-12-22T14:35:17.499Z,14.29443359375
2022-12-22T14:45:17.494Z,14.404296875
2022-12-22T14:55:17.304Z,14.404296875
2022-12-22T15:05:17.303Z,14.404296875
2022-12-22T15:15:17.184Z,14.19677734375
2022-12-22T15:25:17.102Z,14.19677734375
2022-12-22T15:35:17.057Z,14.09912109375
2022-12-22T15:45:16.957Z,14.00146484375
2022-12-22T15:55:16.876Z,14.09912109375
2022-12-22T16:05:17.024Z,14.09912109375
2022-12-22T16:15:16.765Z,14.19677734375
2022-12-22T16:25:16.698Z,14.19677734375
2022-12-22T16:35:16.623Z,14.29443359375
2022-12-22T16:45:16.546Z,14.09912109375
2022-12-22T16:55:16.479Z,14.09912109375
2022-12-22T17:05:16.443Z,13.90380859375
2022-12-22T17:15:16.299Z,13.90380859375
2022-12-22T17:25:16.251Z,14.00146484375
2022-12-22T17:35:16.185Z,14.00146484375
2022-12-22T17:45:16.141Z,14.09912109375
2022-12-22T17:55:16.036Z,14.29443359375
2022-12-22T18:05:15.999Z,14.599609375
2022-12-22T18:15:15.907Z,14.90478515625
2022-12-22T18:25:15.806Z,15.00244140625
2022-12-22T18:35:15.755Z,15.29541015625
2022-12-22T18:45:15.678Z,15.90576171875
2022-12-22T18:55:15.566Z,15.90576171875
2022-12-22T19:05:15.524Z,16.00341796875
2022-12-22T19:15:15.421Z,16.39404296875
2022-12-22T19:25:15.392Z,16.29638671875
2022-12-22T19:35:15.335Z,16.69921875
2022-12-22T19:45:19.667Z,17.19970703125
2022-12-22T19:55:15.175Z,17.7978515625
2022-12-22T20:05:15.394Z,18.20068359375
2022-12-22T20:15:15.037Z,18.701171875
2022-12-22T20:25:14.923Z,18.701171875
2022-12-22T20:35:14.883Z,19.29931640625
2022-12-22T20:45:14.831Z,19.9951171875
2022-12-22T20:55:14.815Z,19.7998046875
2022-12-22T21:05:14.648Z,19.7998046875
2022-12-22T21:15:14.561Z,19.8974609375
2022-12-22T21:25:14.576Z,20.10498046875
2022-12-22T21:35:14.437Z,20.10498046875
2022-12-22T21:45:14.366Z,20.60546875
2022-12-22T21:55:14.260Z,21.10595703125
2022-12-22T22:05:14.190Z,19.9951171875
2022-12-22T22:15:14.217Z,19.49462890625
2022-12-22T22:25:14.078Z,18.896484375
2022-12-22T22:35:13.986Z,18.896484375
2022-12-22T22:45:13.892Z,18.798828125
2022-12-22T22:55:13.888Z,19.20166015625
2022-12-22T23:05:18.703Z,20.60546875
2022-12-22T23:15:13.709Z,19.8974609375
2022-12-22T23:25:13.628Z,20.10498046875
2022-12-22T23:35:13.516Z,20.10498046875
2022-12-22T23:45:13.481Z,21.7041015625
2022-12-22T23:55:13.478Z,20.8984375
